createdAt,value
2023-10-29T00:02:08.910Z,99392.31
2023-10-29T00:04:37.615Z,99388.75
2023-10-29T00:07:05.617Z,99384.22
2023-10-29T00:09:34.705Z,99388.53
2023-10-29T00:12:02.507Z,99384.06
2023-10-29T00:14:32.303Z,99376.94
2023-10-29T00:17:00.199Z,99376.03
2023-10-29T00:19:28.051Z,99380.41
2023-10-29T00:21:55.778Z,99374.13
2023-10-29T00:24:24.052Z,99374.09
2023-10-29T00:26:53.045Z,99368.78
2023-10-29T00:29:21.346Z,99372.28
2023-10-29T00:31:49.114Z,99371.41
2023-10-29T00:34:16.816Z,99364.34
2023-10-29T00:36:44.984Z,99358.13
2023-10-29T00:39:12.613Z,99359.00
2023-10-29T00:41:40.402Z,99360.75
2023-10-29T00:44:09.672Z,99351.88
2023-10-29T00:46:40.569Z,99346.56
2023-10-29T00:49:08.451Z,99337.72
2023-10-29T00:51:36.451Z,99336.88
2023-10-29T00:54:04.867Z,99334.13
2023-10-29T00:56:32.827Z,99335.91
2023-10-29T00:59:00.792Z,99335.00
2023-10-29T01:01:30.150Z,99329.66
2023-10-29T01:03:57.911Z,99328.75
2023-10-29T01:06:25.878Z,99326.09
2023-10-29T01:08:54.182Z,99330.41
2023-10-29T01:11:21.908Z,99329.47
2023-10-29T01:13:49.938Z,99325.00
2023-10-29T01:16:17.695Z,99317.88
2023-10-29T01:18:46.784Z,99316.97
2023-10-29T01:21:14.485Z,99315.19
2023-10-29T01:23:42.241Z,99320.44
2023-10-29T01:26:09.972Z,99315.09
2023-10-29T01:28:37.656Z,99309.81
2023-10-29T01:31:06.396Z,99315.03
2023-10-29T01:33:34.124Z,99315.91
2023-10-29T01:36:03.187Z,99312.31
2023-10-29T01:38:31.234Z,99312.31
2023-10-29T01:40:59.797Z,99305.25
2023-10-29T01:43:27.477Z,99310.50
2023-10-29T01:45:55.191Z,99305.25
2023-10-29T01:48:25.016Z,99307.00
2023-10-29T01:50:52.856Z,99296.41
2023-10-29T01:53:22.034Z,99301.69
2023-10-29T01:55:49.949Z,99299.00
2023-10-29T01:58:18.592Z,99291.94
2023-10-29T02:00:46.817Z,99295.50
2023-10-29T02:03:14.520Z,99293.72
2023-10-29T02:05:42.785Z,99289.28
2023-10-29T02:08:11.044Z,99293.69
2023-10-29T02:10:40.046Z,99291.91
2023-10-29T02:13:07.953Z,99279.59
2023-10-29T02:15:35.719Z,99286.59
2023-10-29T02:18:03.503Z,99280.44
2023-10-29T02:20:31.248Z,99270.75
2023-10-29T02:23:00.378Z,99262.78
2023-10-29T02:25:28.323Z,99262.78
2023-10-29T02:27:56.292Z,99252.22
2023-10-29T02:30:25.433Z,99244.22
2023-10-29T02:32:53.267Z,99245.09
2023-10-29T02:35:22.095Z,99237.16
2023-10-29T02:37:49.755Z,99233.63
2023-10-29T02:40:20.403Z,99225.69
2023-10-29T02:42:48.170Z,99232.78
2023-10-29T02:45:16.268Z,99231.88
2023-10-29T02:47:44.020Z,99224.81
2023-10-29T02:50:11.700Z,99230.03
2023-10-29T02:52:40.154Z,99235.34
2023-10-29T02:55:08.798Z,99228.25
2023-10-29T02:57:37.988Z,99220.28
2023-10-29T03:00:07.007Z,99214.09
2023-10-29T03:02:35.056Z,99205.22
2023-10-29T03:05:03.116Z,99214.00
2023-10-29T03:07:31.694Z,99198.06
2023-10-29T03:09:59.639Z,99200.72
2023-10-29T03:12:27.322Z,99197.13
2023-10-29T03:14:56.308Z,99194.44
2023-10-29T03:17:24.072Z,99189.06
2023-10-29T03:19:51.820Z,99186.38
2023-10-29T03:22:19.531Z,99169.50
2023-10-29T03:24:47.669Z,99173.00
2023-10-29T03:27:15.550Z,99179.13
2023-10-29T03:29:43.505Z,99185.09
2023-10-29T03:32:12.513Z,99181.59
2023-10-29T03:34:40.542Z,99184.16
2023-10-29T03:37:08.263Z,99191.25
2023-10-29T03:39:35.927Z,99187.69
2023-10-29T03:42:04.019Z,99196.50
2023-10-29T03:44:32.028Z,99193.78
2023-10-29T03:46:59.759Z,99201.72
2023-10-29T03:49:28.767Z,99195.53
2023-10-29T03:51:56.474Z,99187.50
2023-10-29T03:54:24.115Z,99185.66
2023-10-29T03:56:51.881Z,99188.25
2023-10-29T03:59:19.816Z,99181.19
2023-10-29T04:01:47.500Z,99178.47
2023-10-29T04:04:16.448Z,99166.97
2023-10-29T04:06:45.568Z,99161.66
2023-10-29T04:09:13.346Z,99152.84
2023-10-29T04:11:41.363Z,99144.91
2023-10-29T04:14:09.053Z,99141.31
2023-10-29T04:16:36.822Z,99141.31
2023-10-29T04:19:04.513Z,99137.81
2023-10-29T04:21:32.191Z,99134.25
2023-10-29T04:24:01.246Z,99124.53
2023-10-29T04:26:29.195Z,99124.53
2023-10-29T04:28:56.907Z,99121.00
2023-10-29T04:31:24.691Z,99113.06
2023-10-29T04:33:52.680Z,99102.44
2023-10-29T04:36:21.458Z,99096.22
2023-10-29T04:38:49.620Z,99084.72
2023-10-29T04:41:19.124Z,99085.63
2023-10-29T04:43:46.896Z,99095.34
2023-10-29T04:46:15.108Z,99097.94
2023-10-29T04:48:43.362Z,99093.50
2023-10-29T04:51:11.236Z,99090.84
2023-10-29T04:53:39.176Z,99095.31
2023-10-29T04:56:07.262Z,99095.22
2023-10-29T04:58:36.419Z,99097.00
2023-10-29T05:01:04.508Z,99090.72
2023-10-29T05:03:32.282Z,99107.53
2023-10-29T05:06:00.038Z,99104.72
2023-10-29T05:08:27.742Z,99091.38
2023-10-29T05:10:55.437Z,99091.28
2023-10-29T05:13:23.166Z,99102.78
2023-10-29T05:15:52.353Z,99095.56
2023-10-29T05:18:20.187Z,99090.31
2023-10-29T05:20:48.002Z,99087.59
2023-10-29T05:23:15.692Z,99093.78
2023-10-29T05:25:43.887Z,99090.34
2023-10-29T05:28:11.779Z,99082.38
2023-10-29T05:30:40.206Z,99078.03
2023-10-29T05:33:09.866Z,99080.59
2023-10-29T05:35:37.642Z,99069.97
2023-10-29T05:38:06.017Z,99071.81
2023-10-29T05:40:33.647Z,99070.06
2023-10-29T05:43:01.365Z,99073.72
2023-10-29T05:45:29.179Z,99076.38
2023-10-29T05:47:58.072Z,99080.84
2023-10-29T05:50:27.579Z,99070.25
2023-10-29T05:52:55.315Z,99064.13
2023-10-29T05:55:23.672Z,99055.25
2023-10-29T05:57:51.584Z,99050.91
2023-10-29T06:00:19.680Z,99045.59
2023-10-29T06:02:47.772Z,99038.53
2023-10-29T06:05:15.682Z,99057.91
2023-10-29T06:07:45.936Z,99057.09
2023-10-29T06:10:14.802Z,99061.50
2023-10-29T06:12:42.964Z,99062.41
2023-10-29T06:15:12.438Z,99065.94
2023-10-29T06:17:40.783Z,99068.59
2023-10-29T06:20:10.136Z,99064.19
2023-10-29T06:22:37.836Z,99059.75
2023-10-29T06:25:10.362Z,99061.53
2023-10-29T06:27:38.049Z,99065.94
2023-10-29T06:30:07.930Z,99050.94
2023-10-29T06:32:35.727Z,99039.50
2023-10-29T06:35:04.131Z,99050.16
2023-10-29T06:37:32.775Z,99039.53
2023-10-29T06:40:00.524Z,99031.59
2023-10-29T06:42:29.860Z,99027.09
2023-10-29T06:44:57.634Z,99019.06
2023-10-29T06:47:25.566Z,99023.31
2023-10-29T06:49:53.268Z,99035.53
2023-10-29T06:52:20.936Z,99034.63
2023-10-29T06:54:48.871Z,99032.88
2023-10-29T06:57:16.786Z,99049.63
2023-10-29T06:59:45.833Z,99042.47
2023-10-29T07:02:13.562Z,99039.75
2023-10-29T07:04:41.477Z,99039.75
2023-10-29T07:07:09.244Z,99052.13
2023-10-29T07:09:38.359Z,99055.56
2023-10-29T07:12:07.045Z,99067.03
2023-10-29T07:14:34.761Z,99063.41
2023-10-29T07:17:04.074Z,99074.88
2023-10-29T07:19:31.829Z,99074.00
2023-10-29T07:22:00.342Z,99089.06
2023-10-29T07:24:28.009Z,99097.03
2023-10-29T07:26:55.723Z,99111.16
2023-10-29T07:29:23.513Z,99117.31
2023-10-29T07:31:51.389Z,99125.31
2023-10-29T07:34:21.319Z,99120.91
2023-10-29T07:36:49.104Z,99121.78
2023-10-29T07:39:16.795Z,99130.56
2023-10-29T07:41:44.695Z,99123.50
2023-10-29T07:44:13.926Z,99109.38
2023-10-29T07:46:41.615Z,99107.56
2023-10-29T07:49:09.332Z,99117.28
2023-10-29T07:51:38.335Z,99111.97
2023-10-29T07:54:06.967Z,99119.03
2023-10-29T07:56:34.734Z,99124.41
2023-10-29T07:59:02.611Z,99145.66
2023-10-29T08:01:30.347Z,99159.78
2023-10-29T08:03:58.550Z,99159.78
2023-10-29T08:06:26.541Z,99102.22
2023-10-29T08:08:55.614Z,99072.13
2023-10-29T08:11:23.655Z,99067.66
2023-10-29T08:13:51.971Z,99078.19
2023-10-29T08:16:20.609Z,99074.56
2023-10-29T08:18:49.026Z,99085.91
2023-10-29T08:21:18.792Z,99088.38
2023-10-29T08:23:46.752Z,99087.28
2023-10-29T08:26:16.078Z,99106.72
2023-10-29T08:28:43.813Z,99090.72
2023-10-29T08:31:13.594Z,99083.63
2023-10-29T08:33:41.570Z,99079.09
2023-10-29T08:36:09.627Z,99089.63
2023-10-29T08:38:38.095Z,99079.88
2023-10-29T08:41:15.616Z,99068.31
2023-10-29T08:43:43.655Z,99066.53
2023-10-29T08:46:11.409Z,99087.56
2023-10-29T08:48:39.270Z,99089.03
2023-10-29T08:51:07.533Z,99066.72
2023-10-29T08:53:35.453Z,99086.94
2023-10-29T08:56:04.619Z,99075.19
2023-10-29T08:58:33.772Z,99044.03
2023-10-29T09:01:01.648Z,99075.94
2023-10-29T09:03:29.493Z,99079.34
2023-10-29T09:06:02.994Z,99072.97
2023-10-29T09:08:30.759Z,99075.44
2023-10-29T09:10:58.472Z,99082.31
2023-10-29T09:13:26.368Z,99092.66
2023-10-29T09:15:55.789Z,99074.78
2023-10-29T09:18:23.737Z,99064.72
2023-10-29T09:20:51.920Z,99063.69
2023-10-29T09:23:19.605Z,99069.53
2023-10-29T09:25:47.759Z,99060.50
2023-10-29T09:28:15.567Z,99063.88
2023-10-29T09:30:43.921Z,99078.97
2023-10-29T09:33:14.182Z,99098.44
2023-10-29T09:35:42.107Z,99104.44
2023-10-29T09:38:10.042Z,99108.84
2023-10-29T09:40:38.981Z,99097.16
2023-10-29T09:43:09.816Z,99113.00
2023-10-29T09:45:47.130Z,99116.69
2023-10-29T09:48:16.885Z,99110.28
2023-10-29T09:50:45.377Z,99093.56
2023-10-29T09:53:13.897Z,99098.06
2023-10-29T09:55:41.941Z,99109.63
2023-10-29T09:58:10.435Z,99123.81
2023-10-29T10:00:38.851Z,99121.16
2023-10-29T10:03:06.549Z,99121.09
2023-10-29T10:05:37.678Z,99108.56
2023-10-29T10:08:06.115Z,99113.72
2023-10-29T10:10:39.695Z,99108.13
2023-10-29T10:13:08.394Z,99103.47
2023-10-29T10:15:36.484Z,99107.59
2023-10-29T10:18:06.171Z,99112.63
2023-10-29T10:20:36.633Z,99115.03
2023-10-29T10:23:05.441Z,99111.22
2023-10-29T10:25:34.645Z,99099.50
2023-10-29T10:28:04.610Z,99115.25
2023-10-29T10:30:34.848Z,99117.69
2023-10-29T10:33:11.663Z,99117.41
2023-10-29T10:35:43.081Z,99135.94
2023-10-29T10:38:11.027Z,99154.44
2023-10-29T10:40:39.127Z,99155.19
2023-10-29T10:43:08.003Z,99143.56
2023-10-29T10:45:37.990Z,99131.09
2023-10-29T10:48:07.480Z,99121.19
2023-10-29T10:50:35.662Z,99136.06
2023-10-29T10:53:05.422Z,99134.94
2023-10-29T10:58:06.600Z,99131.00
2023-10-29T11:00:34.657Z,99130.91
2023-10-29T11:03:05.502Z,99139.59
2023-10-29T11:05:39.642Z,99134.22
2023-10-29T11:08:09.097Z,99143.91
2023-10-29T11:10:36.834Z,99133.88
2023-10-29T11:13:19.605Z,99125.63
2023-10-29T11:15:48.408Z,99117.28
2023-10-29T11:18:16.201Z,99129.31
2023-10-29T11:20:57.213Z,99134.25
2023-10-29T11:23:28.595Z,99146.28
2023-10-29T11:26:22.207Z,99126.50
2023-10-29T11:28:50.982Z,99123.56
2023-10-29T11:31:19.880Z,99121.59
2023-10-29T11:33:49.154Z,99132.00
2023-10-29T11:36:36.538Z,99131.72
2023-10-29T11:39:34.368Z,99131.69
2023-10-29T11:42:22.219Z,99138.75
2023-10-29T11:44:50.528Z,99130.59
2023-10-29T11:47:18.420Z,99119.59
2023-10-29T11:50:16.634Z,99118.16
2023-10-29T11:52:44.799Z,99125.88
2023-10-29T11:55:14.396Z,99125.63
2023-10-29T11:57:47.148Z,99128.91
2023-10-29T12:00:16.228Z,99131.41
2023-10-29T12:02:47.474Z,99120.47
2023-10-29T12:05:17.415Z,99113.19
2023-10-29T12:07:45.281Z,99117.63
2023-10-29T12:10:14.378Z,99103.41
2023-10-29T12:12:53.735Z,99105.03
2023-10-29T12:15:22.084Z,99112.13
2023-10-29T12:17:50.003Z,99111.19
2023-10-29T12:20:26.452Z,99099.63
2023-10-29T12:22:55.995Z,99104.97
2023-10-29T12:25:25.534Z,99099.69
2023-10-29T12:27:53.837Z,99090.91
2023-10-29T12:30:42.130Z,99101.72
2023-10-29T12:33:23.672Z,99112.63
2023-10-29T12:35:52.679Z,99117.22
2023-10-29T12:38:21.049Z,99105.66
2023-10-29T12:41:22.996Z,99108.41
2023-10-29T12:43:53.516Z,99104.09
2023-10-29T12:46:22.603Z,99110.28
2023-10-29T12:49:01.472Z,99114.06
2023-10-29T12:51:31.299Z,99124.75
2023-10-29T12:54:13.352Z,99134.72
2023-10-29T12:56:56.152Z,99113.53
2023-10-29T12:59:27.751Z,99107.47
2023-10-29T13:01:55.967Z,99107.59
2023-10-29T13:04:24.638Z,99112.19
2023-10-29T13:06:54.720Z,99101.38
2023-10-29T13:09:23.387Z,99098.06
2023-10-29T13:11:54.023Z,99088.38
2023-10-29T13:14:23.537Z,99082.97
2023-10-29T13:16:54.051Z,99082.22
2023-10-29T13:19:21.152Z,99078.75
2023-10-29T13:21:49.873Z,99091.22
2023-10-29T13:24:17.655Z,99090.38
2023-10-29T13:26:45.438Z,99092.97
2023-10-29T13:29:14.459Z,99088.56
2023-10-29T13:31:42.140Z,99084.16
2023-10-29T13:34:11.431Z,99091.38
2023-10-29T13:36:39.818Z,99074.53
2023-10-29T13:39:08.048Z,99062.13
2023-10-29T13:41:36.217Z,99050.66
2023-10-29T13:44:04.160Z,99090.84
2023-10-29T13:46:33.305Z,99088.28
2023-10-29T13:49:01.402Z,99068.75
2023-10-29T13:51:29.188Z,99106.25
2023-10-29T13:54:00.279Z,99108.13
2023-10-29T13:56:29.575Z,99101.09
2023-10-29T13:59:00.713Z,99110.91
2023-10-29T14:01:28.559Z,99103.88
2023-10-29T14:03:58.697Z,99108.31
2023-10-29T14:06:27.510Z,99118.91
2023-10-29T14:09:05.986Z,99109.31
2023-10-29T14:11:33.780Z,99114.56
2023-10-29T14:14:03.722Z,99122.66
2023-10-29T14:16:39.130Z,99114.66
2023-10-29T14:19:08.937Z,99117.31
2023-10-29T14:21:37.025Z,99115.56
2023-10-29T14:24:07.992Z,99113.81
2023-10-29T14:26:36.392Z,99096.09
2023-10-29T14:29:04.458Z,99101.50
2023-10-29T14:31:32.602Z,99107.81
2023-10-29T14:34:00.331Z,99106.94
2023-10-29T14:36:29.803Z,99104.34
2023-10-29T14:38:57.480Z,99107.97
2023-10-29T14:41:25.935Z,99111.59
2023-10-29T14:43:53.690Z,99112.53
2023-10-29T14:46:24.356Z,99112.63
2023-10-29T14:48:52.041Z,99120.63
2023-10-29T14:51:22.272Z,99120.53
2023-10-29T14:53:51.640Z,99114.53
2023-10-29T14:56:22.146Z,99115.59
2023-10-29T14:58:51.958Z,99114.06
2023-10-29T15:01:19.719Z,99115.97
2023-10-29T15:03:49.002Z,99106.34
2023-10-29T15:06:17.013Z,99105.53
2023-10-29T15:08:44.884Z,99095.94
2023-10-29T15:11:22.696Z,99118.25
2023-10-29T15:13:58.092Z,99113.84
2023-10-29T15:16:25.823Z,99098.84
2023-10-29T15:18:54.049Z,99101.63
2023-10-29T15:21:22.678Z,99106.28
2023-10-29T15:23:50.397Z,99126.00
2023-10-29T15:26:19.833Z,99122.59
2023-10-29T15:28:48.049Z,99106.72
2023-10-29T15:31:15.869Z,99114.09
2023-10-29T15:33:44.249Z,99110.69
2023-10-29T15:36:13.119Z,99102.00
2023-10-29T15:38:42.502Z,99081.78
2023-10-29T15:41:10.330Z,99088.16
2023-10-29T15:43:39.432Z,99068.69
2023-10-29T15:46:09.371Z,99040.50
2023-10-29T15:48:38.615Z,99016.63
2023-10-29T15:51:09.343Z,99008.69
2023-10-29T15:53:37.631Z,99018.72
2023-10-29T15:56:09.389Z,99025.16
2023-10-29T15:58:37.249Z,99043.22
2023-10-29T16:01:06.416Z,99029.16
2023-10-29T16:03:34.286Z,99028.47
2023-10-29T16:06:08.864Z,99027.66
2023-10-29T16:08:39.497Z,99034.91
2023-10-29T16:11:07.487Z,99035.06
2023-10-29T16:13:35.171Z,99043.09
2023-10-29T16:16:03.343Z,99033.38
2023-10-29T16:18:32.988Z,99036.97
2023-10-29T16:21:00.701Z,99040.53
2023-10-29T16:23:28.447Z,99028.16
2023-10-29T16:25:56.142Z,99035.22
2023-10-29T16:28:23.842Z,99031.75
2023-10-29T16:30:51.580Z,99026.28
2023-10-29T16:33:19.335Z,99005.72
2023-10-29T16:35:48.416Z,99023.59
2023-10-29T16:38:16.217Z,99053.84
2023-10-29T16:40:44.167Z,99048.69
2023-10-29T16:43:11.817Z,99059.53
2023-10-29T16:45:39.900Z,99064.00
2023-10-29T16:48:08.179Z,99060.53
2023-10-29T16:50:45.845Z,99072.91
2023-10-29T16:53:21.759Z,99070.28
2023-10-29T16:55:49.424Z,99065.81
2023-10-29T16:58:17.073Z,99071.16
2023-10-29T17:00:47.872Z,99062.25
2023-10-29T17:03:15.680Z,99039.94
2023-10-29T17:05:43.714Z,99036.28
2023-10-29T17:08:11.437Z,99038.75
2023-10-29T17:10:40.916Z,99042.28
2023-10-29T17:13:17.442Z,99019.94
2023-10-29T17:15:45.518Z,99003.63
2023-10-29T17:18:13.391Z,99029.16
2023-10-29T17:20:41.242Z,99013.94
2023-10-29T17:23:09.026Z,99028.84
2023-10-29T17:25:37.428Z,99016.22
2023-10-29T17:28:06.702Z,99023.19
2023-10-29T17:30:34.530Z,99026.59
2023-10-29T17:33:02.368Z,99025.19
2023-10-29T17:35:33.820Z,99045.56
2023-10-29T17:38:01.738Z,99060.38
2023-10-29T17:40:29.748Z,99079.34
2023-10-29T17:43:00.386Z,99068.75
2023-10-29T17:45:29.573Z,99073.22
2023-10-29T17:47:58.996Z,99057.19
2023-10-29T17:50:26.762Z,99036.84
2023-10-29T17:52:54.916Z,99017.69
2023-10-29T17:55:22.680Z,98996.50
2023-10-29T17:57:50.561Z,98974.25
2023-10-29T18:00:18.833Z,98984.97
2023-10-29T18:02:48.086Z,98970.72
2023-10-29T18:05:16.145Z,98952.06
2023-10-29T18:07:43.921Z,98964.16
2023-10-29T18:10:11.965Z,98968.34
2023-10-29T18:12:39.696Z,98972.03
2023-10-29T18:15:08.695Z,98988.81
2023-10-29T18:17:36.557Z,99004.94
2023-10-29T18:20:07.655Z,98994.25
2023-10-29T18:22:35.578Z,98993.91
2023-10-29T18:25:03.589Z,99008.16
2023-10-29T18:27:31.635Z,99027.00
2023-10-29T18:29:59.949Z,99038.66
2023-10-29T18:32:27.986Z,99082.47
2023-10-29T18:34:55.899Z,99103.91
2023-10-29T18:37:25.134Z,99100.56
2023-10-29T18:39:53.770Z,99084.56
2023-10-29T18:42:21.855Z,99077.53
2023-10-29T18:44:49.977Z,99089.91
2023-10-29T18:47:22.355Z,99081.16
2023-10-29T18:49:50.437Z,99070.28
2023-10-29T18:52:19.793Z,99055.38
2023-10-29T18:54:49.247Z,99057.13
2023-10-29T18:57:19.065Z,99035.66
2023-10-29T18:59:47.048Z,99018.63
2023-10-29T19:02:15.348Z,99023.00
2023-10-29T19:04:43.124Z,99007.34
2023-10-29T19:07:11.575Z,99017.84
2023-10-29T19:09:39.992Z,98996.56
2023-10-29T19:12:10.055Z,99004.75
2023-10-29T19:14:43.156Z,99002.25
2023-10-29T19:17:11.116Z,99004.28
2023-10-29T19:19:40.352Z,99010.44
2023-10-29T19:22:10.513Z,99027.50
2023-10-29T19:24:39.849Z,99059.59
2023-10-29T19:27:11.057Z,99068.69
2023-10-29T19:29:38.871Z,99087.41
2023-10-29T19:32:07.295Z,99097.31
2023-10-29T19:34:35.353Z,99110.84
2023-10-29T19:37:03.269Z,99127.00
2023-10-29T19:39:32.347Z,99149.31
2023-10-29T19:42:00.329Z,99146.59
2023-10-29T19:44:29.647Z,99160.97
2023-10-29T19:46:57.442Z,99152.16
2023-10-29T19:49:25.206Z,99147.75
2023-10-29T19:51:53.247Z,99148.91
2023-10-29T19:54:21.239Z,99156.13
2023-10-29T19:56:49.152Z,99166.88
2023-10-29T19:59:16.894Z,99157.19
2023-10-29T20:01:46.961Z,99175.19
2023-10-29T20:04:14.849Z,99182.50
2023-10-29T20:06:42.639Z,99188.94
2023-10-29T20:09:10.453Z,99192.69
2023-10-29T20:11:38.273Z,99191.09
2023-10-29T20:14:06.425Z,99191.25
2023-10-29T20:16:35.974Z,99193.00
2023-10-29T20:19:05.237Z,99204.81
2023-10-29T20:21:33.032Z,99213.69
2023-10-29T20:24:01.045Z,99211.09
2023-10-29T20:26:29.314Z,99212.94
2023-10-29T20:28:57.591Z,99215.63
2023-10-29T20:31:25.932Z,99214.91
2023-10-29T20:33:53.799Z,99219.38
2023-10-29T20:36:22.950Z,99215.03
2023-10-29T20:38:50.796Z,99217.88
2023-10-29T20:41:19.371Z,99217.03
2023-10-29T20:43:48.591Z,99210.94
2023-10-29T20:46:16.460Z,99218.03
2023-10-29T20:48:45.178Z,99245.63
2023-10-29T20:51:13.072Z,99235.16
2023-10-29T20:53:42.332Z,99241.41
2023-10-29T20:56:10.269Z,99245.97
2023-10-29T20:58:37.982Z,99239.81
2023-10-29T21:01:06.217Z,99242.34
2023-10-29T21:03:34.259Z,99246.88
2023-10-29T21:06:02.718Z,99244.28
2023-10-29T21:08:30.498Z,99246.06
2023-10-29T21:11:09.631Z,99262.06
2023-10-29T21:13:37.500Z,99261.28
2023-10-29T21:16:07.866Z,99254.22
2023-10-29T21:18:37.353Z,99254.28
2023-10-29T21:21:06.193Z,99270.22
2023-10-29T21:23:34.253Z,99264.94
2023-10-29T21:26:02.235Z,99273.91
2023-10-29T21:28:31.482Z,99281.06
2023-10-29T21:30:59.496Z,99288.19
2023-10-29T21:33:27.846Z,99290.03
2023-10-29T21:35:55.691Z,99290.09
2023-10-29T21:38:24.097Z,99294.59
2023-10-29T21:40:51.848Z,99290.25
2023-10-29T21:43:20.029Z,99288.53
2023-10-29T21:45:49.427Z,99285.91
2023-10-29T21:48:17.285Z,99286.00
2023-10-29T21:50:55.099Z,99290.50
2023-10-29T21:53:22.865Z,99291.41
2023-10-29T21:55:50.905Z,99286.19
2023-10-29T21:58:18.833Z,99288.84
2023-10-29T22:00:51.652Z,99288.88
2023-10-29T22:03:19.645Z,99296.94
2023-10-29T22:05:57.495Z,99285.47
2023-10-29T22:08:25.659Z,99295.28
2023-10-29T22:10:57.832Z,99304.97
2023-10-29T22:13:26.379Z,99311.22
2023-10-29T22:15:56.277Z,99310.28
2023-10-29T22:18:24.184Z,99308.56
2023-10-29T22:20:52.084Z,99307.66
2023-10-29T22:23:19.864Z,99311.28
2023-10-29T22:25:47.842Z,99316.56
2023-10-29T22:28:15.814Z,99324.50
2023-10-29T22:30:43.894Z,99321.81
2023-10-29T22:33:13.324Z,99327.97
2023-10-29T22:35:42.203Z,99325.34
2023-10-29T22:38:11.665Z,99327.19
2023-10-29T22:40:39.738Z,99337.00
2023-10-29T22:43:07.686Z,99344.84
2023-10-29T22:45:38.945Z,99344.03
2023-10-29T22:48:07.080Z,99351.91
2023-10-29T22:50:36.218Z,99359.03
2023-10-29T22:53:03.979Z,99361.69
2023-10-29T22:55:31.962Z,99379.38
2023-10-29T22:58:00.001Z,99375.78
2023-10-29T23:00:27.997Z,99379.34
2023-10-29T23:02:56.341Z,99381.97
2023-10-29T23:05:24.274Z,99382.94
2023-10-29T23:07:53.808Z,99385.63
2023-10-29T23:10:21.970Z,99394.53
2023-10-29T23:12:52.409Z,99387.47
2023-10-29T23:15:20.308Z,99393.69
2023-10-29T23:17:48.138Z,99394.66
2023-10-29T23:20:15.943Z,99394.69
2023-10-29T23:22:43.801Z,99400.03
2023-10-29T23:25:12.940Z,99394.78
2023-10-29T23:27:41.061Z,99399.22
2023-10-29T23:30:10.252Z,99391.31
2023-10-29T23:32:38.396Z,99383.38
2023-10-29T23:35:05.828Z,99382.56
2023-10-29T23:37:33.721Z,99373.72
2023-10-29T23:40:01.824Z,99387.09
2023-10-29T23:42:31.016Z,99385.38
2023-10-29T23:44:58.810Z,99387.19
2023-10-29T23:47:26.591Z,99386.34
2023-10-29T23:49:54.433Z,99392.63
2023-10-29T23:52:22.143Z,99394.44
2023-10-29T23:54:50.063Z,99398.06
2023-10-29T23:57:17.989Z,99403.44
2023-10-29T23:59:47.738Z,99411.44
